sensor_id;sensor_type;location;lat;lon;timestamp;pressure;altitude;pressure_sealevel;temperature;humidity
54936;BME280;40838;50.676;7.838;2023-01-15T00:00:00;96769.75;;;10.73;100.00
54936;BME280;40838;50.676;7.838;2023-01-15T00:02:27;96773.19;;;9.84;100.00
54936;BME280;40838;50.676;7.838;2023-01-15T00:04:54;96774.34;;;9.58;100.00
54936;BME280;40838;50.676;7.838;2023-01-15T00:07:20;96767.00;;;9.54;100.00
54936;BME280;40838;50.676;7.838;2023-01-15T00:09:50;96763.16;;;9.06;100.00
54936;BME280;40838;50.676;7.838;2023-01-15T00:12:19;96763.94;;;9.17;100.00
54936;BME280;40838;50.676;7.838;2023-01-15T00:14:46;96778.69;;;9.07;100.00
54936;BME280;40838;50.676;7.838;2023-01-15T00:17:13;96786.56;;;9.18;100.00
54936;BME280;40838;50.676;7.838;2023-01-15T00:19:40;96768.44;;;8.96;100.00
54936;BME280;40838;50.676;7.838;2023-01-15T00:22:06;96786.34;;;8.73;100.00
54936;BME280;40838;50.676;7.838;2023-01-15T00:24:33;96794.75;;;8.75;100.00
54936;BME280;40838;50.676;7.838;2023-01-15T00:27:19;96801.31;;;8.83;100.00
54936;BME280;40838;50.676;7.838;2023-01-15T00:30:04;96800.03;;;8.75;100.00
54936;BME280;40838;50.676;7.838;2023-01-15T00:32:31;96797.91;;;8.62;100.00
54936;BME280;40838;50.676;7.838;2023-01-15T00:34:58;96801.56;;;8.71;100.00
54936;BME280;40838;50.676;7.838;2023-01-15T00:37:26;96811.63;;;9.85;100.00
54936;BME280;40838;50.676;7.838;2023-01-15T00:39:53;96815.47;;;9.43;100.00
54936;BME280;40838;50.676;7.838;2023-01-15T00:42:21;96821.50;;;9.39;100.00
54936;BME280;40838;50.676;7.838;2023-01-15T00:44:48;96828.91;;;9.31;100.00
54936;BME280;40838;50.676;7.838;2023-01-15T00:47:21;96825.94;;;9.59;100.00
54936;BME280;40838;50.676;7.838;2023-01-15T00:49:48;96832.28;;;9.47;100.00
54936;BME280;40838;50.676;7.838;2023-01-15T00:52:16;96840.00;;;9.08;100.00
54936;BME280;40838;50.676;7.838;2023-01-15T00:54:43;96840.25;;;9.12;100.00
54936;BME280;40838;50.676;7.838;2023-01-15T00:57:09;96841.53;;;9.45;100.00
54936;BME280;40838;50.676;7.838;2023-01-15T00:59:38;96849.69;;;9.48;100.00
54936;BME280;40838;50.676;7.838;2023-01-15T01:02:05;96841.53;;;9.29;100.00
54936;BME280;40838;50.676;7.838;2023-01-15T01:04:32;96852.59;;;9.37;100.00
54936;BME280;40838;50.676;7.838;2023-01-15T01:06:59;96847.09;;;9.13;100.00
54936;BME280;40838;50.676;7.838;2023-01-15T01:09:27;96852.88;;;8.84;100.00
54936;BME280;40838;50.676;7.838;2023-01-15T01:11:56;96856.53;;;8.57;100.00
54936;BME280;40838;50.676;7.838;2023-01-15T01:14:23;96835.78;;;8.76;100.00
54936;BME280;40838;50.676;7.838;2023-01-15T01:16:53;96846.28;;;8.71;100.00
54936;BME280;40838;50.676;7.838;2023-01-15T01:19:21;96850.78;;;8.81;100.00
54936;BME280;40838;50.676;7.838;2023-01-15T01:21:49;96847.38;;;8.96;100.00
54936;BME280;40838;50.676;7.838;2023-01-15T01:24:18;96858.38;;;9.54;100.00
54936;BME280;40838;50.676;7.838;2023-01-15T01:26:48;96859.34;;;7.67;100.00
54936;BME280;40838;50.676;7.838;2023-01-15T01:29:20;96872.00;;;7.01;100.00
54936;BME280;40838;50.676;7.838;2023-01-15T01:31:47;96882.50;;;7.01;100.00
54936;BME280;40838;50.676;7.838;2023-01-15T01:34:18;96892.31;;;6.84;100.00
54936;BME280;40838;50.676;7.838;2023-01-15T01:36:51;96885.31;;;7.26;100.00
54936;BME280;40838;50.676;7.838;2023-01-15T01:39:18;96887.16;;;6.94;100.00
54936;BME280;40838;50.676;7.838;2023-01-15T01:41:46;96898.94;;;6.91;100.00
54936;BME280;40838;50.676;7.838;2023-01-15T01:47:19;96901.94;;;6.51;100.00
54936;BME280;40838;50.676;7.838;2023-01-15T01:49:53;96910.25;;;6.43;100.00
54936;BME280;40838;50.676;7.838;2023-01-15T01:52:24;96918.75;;;6.55;100.00
54936;BME280;40838;50.676;7.838;2023-01-15T01:54:53;96907.75;;;6.31;100.00
54936;BME280;40838;50.676;7.838;2023-01-15T01:57:21;96914.03;;;6.30;100.00
54936;BME280;40838;50.676;7.838;2023-01-15T01:59:49;96913.38;;;6.18;100.00
54936;BME280;40838;50.676;7.838;2023-01-15T02:02:19;96915.63;;;6.58;100.00
54936;BME280;40838;50.676;7.838;2023-01-15T02:07:24;96911.16;;;6.31;100.00
54936;BME280;40838;50.676;7.838;2023-01-15T02:09:51;96910.88;;;6.55;100.00
54936;BME280;40838;50.676;7.838;2023-01-15T02:12:22;96908.25;;;7.09;100.00
54936;BME280;40838;50.676;7.838;2023-01-15T02:14:56;96895.19;;;6.82;100.00
54936;BME280;40838;50.676;7.838;2023-01-15T02:17:32;96888.81;;;6.73;100.00
54936;BME280;40838;50.676;7.838;2023-01-15T02:20:18;96891.63;;;7.31;100.00
54936;BME280;40838;50.676;7.838;2023-01-15T02:22:59;96882.53;;;7.06;100.00
54936;BME280;40838;50.676;7.838;2023-01-15T02:25:32;96882.59;;;6.84;100.00
54936;BME280;40838;50.676;7.838;2023-01-15T02:28:07;96896.06;;;6.39;100.00
54936;BME280;40838;50.676;7.838;2023-01-15T02:30:39;96897.28;;;6.58;100.00
54936;BME280;40838;50.676;7.838;2023-01-15T02:33:10;96891.63;;;6.93;100.00
54936;BME280;40838;50.676;7.838;2023-01-15T02:35:43;96888.53;;;7.01;100.00
54936;BME280;40838;50.676;7.838;2023-01-15T02:38:14;96886.78;;;6.53;100.00
54936;BME280;40838;50.676;7.838;2023-01-15T02:40:49;96883.91;;;6.54;100.00
54936;BME280;40838;50.676;7.838;2023-01-15T02:43:22;96885.28;;;6.35;100.00
54936;BME280;40838;50.676;7.838;2023-01-15T02:45:53;96882.09;;;6.33;100.00
54936;BME280;40838;50.676;7.838;2023-01-15T02:48:25;96881.34;;;6.38;100.00
54936;BME280;40838;50.676;7.838;2023-01-15T02:50:57;96891.97;;;6.26;100.00
54936;BME280;40838;50.676;7.838;2023-01-15T02:53:33;96887.63;;;6.36;100.00
54936;BME280;40838;50.676;7.838;2023-01-15T02:56:05;96889.28;;;6.43;100.00
54936;BME280;40838;50.676;7.838;2023-01-15T02:58:45;96891.91;;;6.43;100.00
54936;BME280;40838;50.676;7.838;2023-01-15T03:01:16;96888.69;;;6.35;100.00
54936;BME280;40838;50.676;7.838;2023-01-15T03:03:50;96882.97;;;6.66;100.00
54936;BME280;40838;50.676;7.838;2023-01-15T03:06:31;96885.44;;;6.28;100.00
54936;BME280;40838;50.676;7.838;2023-01-15T03:09:02;96883.19;;;6.37;100.00
54936;BME280;40838;50.676;7.838;2023-01-15T03:11:32;96889.69;;;6.29;100.00
54936;BME280;40838;50.676;7.838;2023-01-15T03:14:07;96885.28;;;6.35;100.00
54936;BME280;40838;50.676;7.838;2023-01-15T03:16:36;96883.53;;;6.46;100.00
54936;BME280;40838;50.676;7.838;2023-01-15T03:19:10;96880.78;;;6.08;100.00
54936;BME280;40838;50.676;7.838;2023-01-15T03:21:50;96868.75;;;5.90;100.00
54936;BME280;40838;50.676;7.838;2023-01-15T03:24:24;96874.56;;;5.76;100.00
54936;BME280;40838;50.676;7.838;2023-01-15T03:26:53;96879.50;;;6.11;100.00
54936;BME280;40838;50.676;7.838;2023-01-15T03:29:25;96879.97;;;6.30;100.00
54936;BME280;40838;50.676;7.838;2023-01-15T03:31:53;96874.81;;;6.35;100.00
54936;BME280;40838;50.676;7.838;2023-01-15T03:34:30;96864.19;;;6.25;100.00
54936;BME280;40838;50.676;7.838;2023-01-15T03:36:59;96870.78;;;5.66;100.00
54936;BME280;40838;50.676;7.838;2023-01-15T03:39:29;96868.84;;;5.57;100.00
54936;BME280;40838;50.676;7.838;2023-01-15T03:42:11;96879.41;;;5.84;100.00
54936;BME280;40838;50.676;7.838;2023-01-15T03:44:50;96881.97;;;6.23;100.00
54936;BME280;40838;50.676;7.838;2023-01-15T03:47:31;96881.81;;;6.29;100.00
54936;BME280;40838;50.676;7.838;2023-01-15T03:50:16;96874.25;;;6.60;100.00
54936;BME280;40838;50.676;7.838;2023-01-15T03:52:51;96875.31;;;6.59;100.00
54936;BME280;40838;50.676;7.838;2023-01-15T03:55:25;96882.09;;;6.33;100.00
54936;BME280;40838;50.676;7.838;2023-01-15T03:58:03;96887.94;;;5.96;100.00
54936;BME280;40838;50.676;7.838;2023-01-15T04:00:42;96901.34;;;5.61;100.00
54936;BME280;40838;50.676;7.838;2023-01-15T04:03:12;96903.75;;;5.29;100.00
54936;BME280;40838;50.676;7.838;2023-01-15T04:05:41;96903.25;;;5.65;100.00
54936;BME280;40838;50.676;7.838;2023-01-15T04:08:08;96887.03;;;5.30;100.00
54936;BME280;40838;50.676;7.838;2023-01-15T04:10:36;96899.41;;;5.73;100.00
54936;BME280;40838;50.676;7.838;2023-01-15T04:13:07;96902.28;;;6.10;100.00
54936;BME280;40838;50.676;7.838;2023-01-15T04:15:35;96894.63;;;5.87;100.00
54936;BME280;40838;50.676;7.838;2023-01-15T04:18:04;96893.78;;;5.64;100.00
54936;BME280;40838;50.676;7.838;2023-01-15T04:20:33;96907.69;;;5.48;100.00
54936;BME280;40838;50.676;7.838;2023-01-15T04:23:00;96908.97;;;6.01;100.00
54936;BME280;40838;50.676;7.838;2023-01-15T04:25:27;96906.75;;;5.93;100.00
54936;BME280;40838;50.676;7.838;2023-01-15T04:27:54;96914.38;;;5.56;100.00
54936;BME280;40838;50.676;7.838;2023-01-15T04:30:23;96912.34;;;5.63;100.00
54936;BME280;40838;50.676;7.838;2023-01-15T04:32:50;96898.56;;;5.67;100.00
54936;BME280;40838;50.676;7.838;2023-01-15T04:35:19;96906.75;;;5.54;100.00
54936;BME280;40838;50.676;7.838;2023-01-15T04:37:46;96903.34;;;5.37;100.00
54936;BME280;40838;50.676;7.838;2023-01-15T04:40:13;96894.34;;;5.66;100.00
54936;BME280;40838;50.676;7.838;2023-01-15T04:43:00;96900.41;;;5.16;100.00
54936;BME280;40838;50.676;7.838;2023-01-15T04:45:47;96891.59;;;5.06;100.00
54936;BME280;40838;50.676;7.838;2023-01-15T04:48:13;96884.56;;;5.40;100.00
54936;BME280;40838;50.676;7.838;2023-01-15T04:50:42;96882.91;;;5.34;100.00
54936;BME280;40838;50.676;7.838;2023-01-15T04:53:08;96872.16;;;5.52;100.00
54936;BME280;40838;50.676;7.838;2023-01-15T04:55:35;96876.88;;;5.33;100.00
54936;BME280;40838;50.676;7.838;2023-01-15T04:58:02;96888.59;;;4.97;100.00
54936;BME280;40838;50.676;7.838;2023-01-15T05:00:32;96886.00;;;5.31;100.00
54936;BME280;40838;50.676;7.838;2023-01-15T05:02:58;96872.22;;;5.35;100.00
54936;BME280;40838;50.676;7.838;2023-01-15T05:05:25;96869.50;;;4.80;100.00
54936;BME280;40838;50.676;7.838;2023-01-15T05:07:54;96865.84;;;5.31;100.00
54936;BME280;40838;50.676;7.838;2023-01-15T05:10:20;96858.31;;;5.35;100.00
54936;BME280;40838;50.676;7.838;2023-01-15T05:12:47;96859.34;;;5.51;100.00
54936;BME280;40838;50.676;7.838;2023-01-15T05:15:14;96851.31;;;5.18;100.00
54936;BME280;40838;50.676;7.838;2023-01-15T05:17:41;96860.50;;;5.21;100.00
54936;BME280;40838;50.676;7.838;2023-01-15T05:20:09;96864.88;;;5.54;100.00
54936;BME280;40838;50.676;7.838;2023-01-15T05:22:36;96863.59;;;5.01;100.00
54936;BME280;40838;50.676;7.838;2023-01-15T05:25:05;96864.28;;;5.13;100.00
54936;BME280;40838;50.676;7.838;2023-01-15T05:27:32;96873.16;;;4.95;100.00
54936;BME280;40838;50.676;7.838;2023-01-15T05:29:59;96882.38;;;5.15;100.00
54936;BME280;40838;50.676;7.838;2023-01-15T05:32:26;96887.00;;;5.46;100.00
54936;BME280;40838;50.676;7.838;2023-01-15T05:34:52;96882.91;;;5.34;100.00
54936;BME280;40838;50.676;7.838;2023-01-15T05:37:19;96874.66;;;5.42;100.00
54936;BME280;40838;50.676;7.838;2023-01-15T05:39:46;96889.00;;;5.22;100.00
54936;BME280;40838;50.676;7.838;2023-01-15T05:42:40;96887.56;;;5.32;100.00
54936;BME280;40838;50.676;7.838;2023-01-15T05:45:08;96882.69;;;5.35;100.00
54936;BME280;40838;50.676;7.838;2023-01-15T05:47:35;96880.06;;;5.74;100.00
54936;BME280;40838;50.676;7.838;2023-01-15T05:50:02;96887.19;;;5.23;100.00
54936;BME280;40838;50.676;7.838;2023-01-15T05:52:29;96891.75;;;5.50;100.00
54936;BME280;40838;50.676;7.838;2023-01-15T05:54:56;96898.59;;;5.34;100.00
54936;BME280;40838;50.676;7.838;2023-01-15T05:57:23;96893.44;;;5.56;100.00
54936;BME280;40838;50.676;7.838;2023-01-15T05:59:51;96887.72;;;5.59;100.00
54936;BME280;40838;50.676;7.838;2023-01-15T06:02:19;96896.06;;;5.78;100.00
54936;BME280;40838;50.676;7.838;2023-01-15T06:04:46;96902.78;;;5.52;100.00
54936;BME280;40838;50.676;7.838;2023-01-15T06:07:12;96897.66;;;5.79;100.00
54936;BME280;40838;50.676;7.838;2023-01-15T06:09:41;96898.03;;;5.32;100.00
54936;BME280;40838;50.676;7.838;2023-01-15T06:12:08;96908.97;;;5.45;100.00
54936;BME280;40838;50.676;7.838;2023-01-15T06:14:35;96901.13;;;5.29;100.00
54936;BME280;40838;50.676;7.838;2023-01-15T06:17:05;96903.41;;;4.74;100.00
54936;BME280;40838;50.676;7.838;2023-01-15T06:19:32;96898.50;;;5.12;100.00
54936;BME280;40838;50.676;7.838;2023-01-15T06:21:58;96897.88;;;5.21;100.00
54936;BME280;40838;50.676;7.838;2023-01-15T06:24:25;96913.72;;;5.32;100.00
54936;BME280;40838;50.676;7.838;2023-01-15T06:26:52;96906.91;;;5.14;100.00
54936;BME280;40838;50.676;7.838;2023-01-15T06:29:21;96925.72;;;5.44;100.00
54936;BME280;40838;50.676;7.838;2023-01-15T06:31:48;96916.09;;;5.16;100.00
54936;BME280;40838;50.676;7.838;2023-01-15T06:34:16;96911.56;;;5.62;100.00
54936;BME280;40838;50.676;7.838;2023-01-15T06:36:43;96908.28;;;5.33;100.00
54936;BME280;40838;50.676;7.838;2023-01-15T06:39:10;96920.16;;;5.24;100.00
54936;BME280;40838;50.676;7.838;2023-01-15T06:41:36;96922.03;;;5.29;100.00
54936;BME280;40838;50.676;7.838;2023-01-15T06:44:20;96910.22;;;5.43;100.00
54936;BME280;40838;50.676;7.838;2023-01-15T06:47:12;96923.84;;;5.11;100.00
54936;BME280;40838;50.676;7.838;2023-01-15T06:49:51;96935.53;;;5.04;100.00
54936;BME280;40838;50.676;7.838;2023-01-15T06:52:18;96937.59;;;5.18;100.00
54936;BME280;40838;50.676;7.838;2023-01-15T06:54:45;96934.47;;;5.05;100.00
54936;BME280;40838;50.676;7.838;2023-01-15T06:57:12;96945.28;;;5.25;100.00
54936;BME280;40838;50.676;7.838;2023-01-15T06:59:39;96936.56;;;5.36;100.00
54936;BME280;40838;50.676;7.838;2023-01-15T07:02:06;96940.66;;;5.32;100.00
54936;BME280;40838;50.676;7.838;2023-01-15T07:04:33;96935.84;;;5.07;100.00
54936;BME280;40838;50.676;7.838;2023-01-15T07:07:01;96944.25;;;5.09;100.00
54936;BME280;40838;50.676;7.838;2023-01-15T07:09:27;96940.19;;;5.02;100.00
54936;BME280;40838;50.676;7.838;2023-01-15T07:11:54;96953.63;;;4.65;100.00
54936;BME280;40838;50.676;7.838;2023-01-15T07:14:23;96954.31;;;4.72;100.00
54936;BME280;40838;50.676;7.838;2023-01-15T07:16:51;96976.09;;;4.37;100.00
54936;BME280;40838;50.676;7.838;2023-01-15T07:19:18;96995.63;;;4.35;100.00
54936;BME280;40838;50.676;7.838;2023-01-15T07:21:45;97003.94;;;4.72;100.00
54936;BME280;40838;50.676;7.838;2023-01-15T07:24:15;96981.25;;;4.08;100.00
54936;BME280;40838;50.676;7.838;2023-01-15T07:26:42;96978.16;;;4.23;100.00
54936;BME280;40838;50.676;7.838;2023-01-15T07:29:10;96965.72;;;4.54;100.00
54936;BME280;40838;50.676;7.838;2023-01-15T07:31:37;96973.91;;;4.46;100.00
54936;BME280;40838;50.676;7.838;2023-01-15T07:34:07;96971.13;;;4.24;100.00
54936;BME280;40838;50.676;7.838;2023-01-15T07:36:35;96963.50;;;4.34;100.00
54936;BME280;40838;50.676;7.838;2023-01-15T07:39:02;96962.06;;;4.03;100.00
54936;BME280;40838;50.676;7.838;2023-01-15T07:41:31;96968.19;;;4.61;100.00
54936;BME280;40838;50.676;7.838;2023-01-15T07:44:15;96978.88;;;4.59;100.00
54936;BME280;40838;50.676;7.838;2023-01-15T07:47:00;96994.19;;;4.67;100.00
54936;BME280;40838;50.676;7.838;2023-01-15T07:49:45;97000.16;;;4.80;100.00
54936;BME280;40838;50.676;7.838;2023-01-15T07:52:14;97003.81;;;5.07;100.00
54936;BME280;40838;50.676;7.838;2023-01-15T07:54:42;96997.63;;;4.85;100.00
54936;BME280;40838;50.676;7.838;2023-01-15T07:57:12;97005.63;;;4.78;100.00
54936;BME280;40838;50.676;7.838;2023-01-15T07:59:39;97000.41;;;4.78;100.00
54936;BME280;40838;50.676;7.838;2023-01-15T08:02:06;97007.19;;;4.50;100.00
54936;BME280;40838;50.676;7.838;2023-01-15T08:04:33;96983.31;;;4.59;100.00
54936;BME280;40838;50.676;7.838;2023-01-15T08:07:00;96987.09;;;4.80;100.00
54936;BME280;40838;50.676;7.838;2023-01-15T08:09:28;96988.44;;;5.11;100.00
54936;BME280;40838;50.676;7.838;2023-01-15T08:11:57;96989.84;;;5.02;100.00
54936;BME280;40838;50.676;7.838;2023-01-15T08:14:43;96987.44;;;5.45;100.00
54936;BME280;40838;50.676;7.838;2023-01-15T08:17:27;96993.59;;;5.22;100.00
54936;BME280;40838;50.676;7.838;2023-01-15T08:19:54;96996.53;;;5.09;100.00
54936;BME280;40838;50.676;7.838;2023-01-15T08:22:21;96984.28;;;4.69;100.00
54936;BME280;40838;50.676;7.838;2023-01-15T08:24:49;96976.94;;;4.95;100.00
54936;BME280;40838;50.676;7.838;2023-01-15T08:27:16;96983.69;;;5.08;100.00
54936;BME280;40838;50.676;7.838;2023-01-15T08:29:44;96999.28;;;5.03;100.00
54936;BME280;40838;50.676;7.838;2023-01-15T08:32:11;97017.19;;;5.11;100.00
54936;BME280;40838;50.676;7.838;2023-01-15T08:34:39;97017.53;;;5.14;100.00
54936;BME280;40838;50.676;7.838;2023-01-15T08:37:06;97016.56;;;5.20;100.00
54936;BME280;40838;50.676;7.838;2023-01-15T08:39:32;97023.97;;;5.23;100.00
54936;BME280;40838;50.676;7.838;2023-01-15T08:41:59;97008.34;;;5.29;100.00
54936;BME280;40838;50.676;7.838;2023-01-15T08:44:26;97023.47;;;5.10;100.00
54936;BME280;40838;50.676;7.838;2023-01-15T08:46:54;97007.34;;;5.30;100.00
54936;BME280;40838;50.676;7.838;2023-01-15T08:49:21;97023.72;;;5.25;100.00
54936;BME280;40838;50.676;7.838;2023-01-15T08:51:48;97015.59;;;5.55;100.00
54936;BME280;40838;50.676;7.838;2023-01-15T08:54:19;97027.44;;;4.84;100.00
54936;BME280;40838;50.676;7.838;2023-01-15T08:56:47;97024.00;;;5.12;100.00
54936;BME280;40838;50.676;7.838;2023-01-15T08:59:17;97027.59;;;5.22;100.00
54936;BME280;40838;50.676;7.838;2023-01-15T09:01:47;97021.59;;;4.93;100.00
54936;BME280;40838;50.676;7.838;2023-01-15T09:04:16;97025.50;;;4.79;100.00
54936;BME280;40838;50.676;7.838;2023-01-15T09:06:44;97022.31;;;5.34;100.00
54936;BME280;40838;50.676;7.838;2023-01-15T09:09:14;97031.00;;;5.23;100.00
54936;BME280;40838;50.676;7.838;2023-01-15T09:11:43;97035.69;;;5.21;100.00
54936;BME280;40838;50.676;7.838;2023-01-15T09:14:12;97028.25;;;5.46;100.00
54936;BME280;40838;50.676;7.838;2023-01-15T09:16:39;97035.88;;;5.03;100.00
54936;BME280;40838;50.676;7.838;2023-01-15T09:19:11;97040.78;;;5.28;100.00
54936;BME280;40838;50.676;7.838;2023-01-15T09:21:41;97031.41;;;5.15;100.00
54936;BME280;40838;50.676;7.838;2023-01-15T09:24:08;97034.63;;;5.84;100.00
54936;BME280;40838;50.676;7.838;2023-01-15T09:26:36;97018.38;;;5.49;100.00
54936;BME280;40838;50.676;7.838;2023-01-15T09:29:05;97036.00;;;5.53;100.00
54936;BME280;40838;50.676;7.838;2023-01-15T09:31:33;97033.78;;;5.96;100.00
54936;BME280;40838;50.676;7.838;2023-01-15T09:34:00;97037.31;;;5.39;100.00
54936;BME280;40838;50.676;7.838;2023-01-15T09:36:29;97040.16;;;5.37;100.00
54936;BME280;40838;50.676;7.838;2023-01-15T09:39:00;97049.22;;;5.63;100.00
54936;BME280;40838;50.676;7.838;2023-01-15T09:41:48;97043.03;;;5.53;100.00
54936;BME280;40838;50.676;7.838;2023-01-15T09:44:46;97061.84;;;5.66;100.00
54936;BME280;40838;50.676;7.838;2023-01-15T09:47:21;97068.06;;;5.94;100.00
54936;BME280;40838;50.676;7.838;2023-01-15T09:50:02;97073.84;;;5.79;100.00
54936;BME280;40838;50.676;7.838;2023-01-15T09:52:45;97077.91;;;5.58;100.00
54936;BME280;40838;50.676;7.838;2023-01-15T09:55:25;97066.78;;;5.80;100.00
54936;BME280;40838;50.676;7.838;2023-01-15T09:57:55;97067.31;;;5.82;100.00
54936;BME280;40838;50.676;7.838;2023-01-15T10:00:26;97070.34;;;5.28;100.00
54936;BME280;40838;50.676;7.838;2023-01-15T10:02:58;97067.44;;;5.41;100.00
54936;BME280;40838;50.676;7.838;2023-01-15T10:05:31;97065.66;;;5.59;100.00
54936;BME280;40838;50.676;7.838;2023-01-15T10:08:05;97065.25;;;5.67;100.00
54936;BME280;40838;50.676;7.838;2023-01-15T10:10:42;97069.44;;;5.51;100.00
54936;BME280;40838;50.676;7.838;2023-01-15T10:13:18;97067.88;;;5.84;100.00
54936;BME280;40838;50.676;7.838;2023-01-15T10:15:48;97060.63;;;6.03;100.00
54936;BME280;40838;50.676;7.838;2023-01-15T10:18:19;97054.28;;;5.70;100.00
54936;BME280;40838;50.676;7.838;2023-01-15T10:20:58;97058.44;;;5.83;100.00
54936;BME280;40838;50.676;7.838;2023-01-15T10:23:36;97065.19;;;5.62;100.00
54936;BME280;40838;50.676;7.838;2023-01-15T10:28:58;97073.97;;;6.40;100.00
54936;BME280;40838;50.676;7.838;2023-01-15T10:34:49;97078.94;;;7.02;100.00
54936;BME280;40838;50.676;7.838;2023-01-15T10:37:26;97079.97;;;7.23;100.00
54936;BME280;40838;50.676;7.838;2023-01-15T10:40:11;97080.41;;;7.15;100.00
54936;BME280;40838;50.676;7.838;2023-01-15T10:42:49;97081.00;;;6.78;100.00
54936;BME280;40838;50.676;7.838;2023-01-15T10:45:23;97081.50;;;6.53;100.00
54936;BME280;40838;50.676;7.838;2023-01-15T10:47:56;97091.88;;;6.65;100.00
54936;BME280;40838;50.676;7.838;2023-01-15T10:50:44;97092.34;;;6.84;100.00
54936;BME280;40838;50.676;7.838;2023-01-15T10:53:16;97091.94;;;6.70;100.00
54936;BME280;40838;50.676;7.838;2023-01-15T10:55:46;97090.06;;;6.49;100.00
54936;BME280;40838;50.676;7.838;2023-01-15T10:58:24;97103.22;;;6.71;100.00
54936;BME280;40838;50.676;7.838;2023-01-15T11:00:59;97099.47;;;7.11;100.00
54936;BME280;40838;50.676;7.838;2023-01-15T11:03:30;97094.41;;;6.60;100.00
54936;BME280;40838;50.676;7.838;2023-01-15T11:05:59;97097.41;;;7.62;100.00
54936;BME280;40838;50.676;7.838;2023-01-15T11:09:08;97112.72;;;7.21;100.00
54936;BME280;40838;50.676;7.838;2023-01-15T11:11:22;97101.34;;;8.66;100.00
54936;BME280;40838;50.676;7.838;2023-01-15T11:14:06;97105.22;;;7.30;100.00
54936;BME280;40838;50.676;7.838;2023-01-15T11:16:52;97108.09;;;7.82;100.00
54936;BME280;40838;50.676;7.838;2023-01-15T11:19:39;97112.97;;;8.38;100.00
54936;BME280;40838;50.676;7.838;2023-01-15T11:22:10;97110.34;;;8.38;100.00
54936;BME280;40838;50.676;7.838;2023-01-15T11:24:45;97113.22;;;7.72;100.00
54936;BME280;40838;50.676;7.838;2023-01-15T11:27:19;97102.63;;;8.58;100.00
54936;BME280;40838;50.676;7.838;2023-01-15T11:29:50;97086.34;;;9.35;100.00
54936;BME280;40838;50.676;7.838;2023-01-15T11:32:24;97087.69;;;9.52;100.00
54936;BME280;40838;50.676;7.838;2023-01-15T11:34:54;97073.75;;;9.67;100.00
54936;BME280;40838;50.676;7.838;2023-01-15T11:37:21;97071.63;;;9.49;100.00
54936;BME280;40838;50.676;7.838;2023-01-15T11:39:53;97071.50;;;8.93;100.00
54936;BME280;40838;50.676;7.838;2023-01-15T11:42:20;97065.31;;;9.55;100.00
54936;BME280;40838;50.676;7.838;2023-01-15T11:45:12;97068.78;;;9.86;100.00
54936;BME280;40838;50.676;7.838;2023-01-15T11:47:58;97076.31;;;9.26;100.00
54936;BME280;40838;50.676;7.838;2023-01-15T11:50:51;97055.56;;;9.45;100.00
54936;BME280;40838;50.676;7.838;2023-01-15T11:53:23;97066.59;;;8.22;100.00
54936;BME280;40838;50.676;7.838;2023-01-15T11:55:57;97061.91;;;9.65;100.00
54936;BME280;40838;50.676;7.838;2023-01-15T11:58:33;97072.44;;;8.71;100.00
54936;BME280;40838;50.676;7.838;2023-01-15T12:01:04;97072.13;;;8.57;100.00
54936;BME280;40838;50.676;7.838;2023-01-15T12:03:35;97061.81;;;8.51;100.00
54936;BME280;40838;50.676;7.838;2023-01-15T12:06:05;97061.91;;;8.71;100.00
54936;BME280;40838;50.676;7.838;2023-01-15T12:08:52;97065.91;;;8.31;100.00
54936;BME280;40838;50.676;7.838;2023-01-15T12:11:42;97066.00;;;8.09;100.00
54936;BME280;40838;50.676;7.838;2023-01-15T12:14:40;97048.28;;;7.94;100.00
54936;BME280;40838;50.676;7.838;2023-01-15T12:17:28;97085.16;;;8.05;100.00
54936;BME280;40838;50.676;7.838;2023-01-15T12:20:10;97082.06;;;7.81;100.00
54936;BME280;40838;50.676;7.838;2023-01-15T12:22:53;97076.56;;;7.82;100.00
54936;BME280;40838;50.676;7.838;2023-01-15T12:25:38;97067.50;;;8.85;100.00
54936;BME280;40838;50.676;7.838;2023-01-15T12:28:14;97067.09;;;8.18;100.00
54936;BME280;40838;50.676;7.838;2023-01-15T12:30:50;97062.44;;;8.63;100.00
54936;BME280;40838;50.676;7.838;2023-01-15T12:33:35;97060.47;;;8.06;100.00
54936;BME280;40838;50.676;7.838;2023-01-15T12:36:09;97050.28;;;8.52;100.00
54936;BME280;40838;50.676;7.838;2023-01-15T12:38:49;97043.22;;;8.68;100.00
54936;BME280;40838;50.676;7.838;2023-01-15T12:41:22;97033.34;;;8.37;100.00
54936;BME280;40838;50.676;7.838;2023-01-15T12:43:53;97048.34;;;8.00;100.00
54936;BME280;40838;50.676;7.838;2023-01-15T12:46:42;97032.94;;;7.76;100.00
54936;BME280;40838;50.676;7.838;2023-01-15T12:49:21;97031.75;;;7.94;100.00
54936;BME280;40838;50.676;7.838;2023-01-15T12:52:01;97047.50;;;7.94;100.00
54936;BME280;40838;50.676;7.838;2023-01-15T12:54:35;97040.13;;;8.28;100.00
54936;BME280;40838;50.676;7.838;2023-01-15T12:57:12;97036.94;;;8.74;100.00
54936;BME280;40838;50.676;7.838;2023-01-15T12:59:46;97036.41;;;8.19;100.00
54936;BME280;40838;50.676;7.838;2023-01-15T13:02:20;97030.88;;;8.21;100.00
54936;BME280;40838;50.676;7.838;2023-01-15T13:04:52;97031.34;;;8.12;100.00
54936;BME280;40838;50.676;7.838;2023-01-15T13:07:28;97038.31;;;8.34;100.00
54936;BME280;40838;50.676;7.838;2023-01-15T13:10:03;97052.66;;;7.84;100.00
54936;BME280;40838;50.676;7.838;2023-01-15T13:12:36;97051.72;;;7.63;100.00
54936;BME280;40838;50.676;7.838;2023-01-15T13:15:04;97064.56;;;7.59;100.00
54936;BME280;40838;50.676;7.838;2023-01-15T13:17:37;97076.34;;;7.57;100.00
54936;BME280;40838;50.676;7.838;2023-01-15T13:20:25;97068.56;;;7.40;100.00
54936;BME280;40838;50.676;7.838;2023-01-15T13:23:06;97063.34;;;7.72;100.00
54936;BME280;40838;50.676;7.838;2023-01-15T13:28:38;97074.34;;;8.01;100.00
54936;BME280;40838;50.676;7.838;2023-01-15T13:31:21;97063.78;;;7.91;100.00
54936;BME280;40838;50.676;7.838;2023-01-15T13:33:58;97092.00;;;7.73;100.00
54936;BME280;40838;50.676;7.838;2023-01-15T13:36:32;97088.38;;;7.80;100.00
54936;BME280;40838;50.676;7.838;2023-01-15T13:39:04;97094.66;;;7.79;100.00